<?xml version="1.0" encoding="utf-8"?>
<gpx xmlns:xsi="http://www.w3.org/2001/XMLSchema-instance" xmlns:xsd="http://www.w3.org/2001/XMLSchema" version="1.1" creator="Shapelink.com" xmlns="http://www.topografix.com/GPX/1/1" xmlns:gpxtpx="http://www.garmin.com/xmlschemas/TrackPointExtension/v1">
  <metadata>
    <name>Kører 3.60 km, 2016-10-11</name>
    <desc></desc>
    <author><name>Stefan Östlund</name></author> 
    <time>2016-10-11T06:35:13Z</time>
  </metadata>
  <trk>
    <name>Kører 3.60 km, 2016-10-11</name>
    <trkseg>
      <trkpt lat="57.774120361935" lon="12.233748668478">
        <ele>4.6</ele>
        <time>2016-10-11T06:36:52Z</time>
      </trkpt>
      <trkpt lat="57.774120361935" lon="12.233748668478">
        <ele>4.6</ele>
        <time>2016-10-11T06:36:53Z</time>
      </trkpt>
      <trkpt lat="57.774174928104" lon="12.234120321924">
        <ele>4.4</ele>
        <time>2016-10-11T06:36:59Z</time>
      </trkpt>
      <trkpt lat="57.774269727393" lon="12.234444869092">
        <ele>4.2</ele>
        <time>2016-10-11T06:37:05Z</time>
      </trkpt>
      <trkpt lat="57.774262602778" lon="12.234584930641">
        <ele>4.2</ele>
        <time>2016-10-11T06:37:08Z</time>
      </trkpt>
      <trkpt lat="57.774250365204" lon="12.234847787025">
        <ele>4.2</ele>
        <time>2016-10-11T06:37:14Z</time>
      </trkpt>
      <trkpt lat="57.774262770416" lon="12.235032943196">
        <ele>4.4</ele>
        <time>2016-10-11T06:37:18Z</time>
      </trkpt>
      <trkpt lat="57.774261932226" lon="12.235291524811">
        <ele>5</ele>
        <time>2016-10-11T06:37:24Z</time>
      </trkpt>
      <trkpt lat="57.774267212823" lon="12.235551698987">
        <ele>4.8</ele>
        <time>2016-10-11T06:37:30Z</time>
      </trkpt>
      <trkpt lat="57.774302249165" lon="12.235777423554">
        <ele>5.4</ele>
        <time>2016-10-11T06:37:36Z</time>
      </trkpt>
      <trkpt lat="57.77432278482" lon="12.235832660275">
        <ele>5.6</ele>
        <time>2016-10-11T06:37:38Z</time>
      </trkpt>
      <trkpt lat="57.774369891098" lon="12.235880437105">
        <ele>6.2</ele>
        <time>2016-10-11T06:37:41Z</time>
      </trkpt>
      <trkpt lat="57.7744166621" lon="12.235925364089">
        <ele>6.8</ele>
        <time>2016-10-11T06:37:44Z</time>
      </trkpt>
      <trkpt lat="57.774525207705" lon="12.235974817299">
        <ele>7.8</ele>
        <time>2016-10-11T06:37:50Z</time>
      </trkpt>
      <trkpt lat="57.774638614812" lon="12.235953443454">
        <ele>9</ele>
        <time>2016-10-11T06:37:56Z</time>
      </trkpt>
      <trkpt lat="57.774734839024" lon="12.235903403511">
        <ele>10.2</ele>
        <time>2016-10-11T06:38:02Z</time>
      </trkpt>
      <trkpt lat="57.77482402244" lon="12.235842467098">
        <ele>10.8</ele>
        <time>2016-10-11T06:38:08Z</time>
      </trkpt>
      <trkpt lat="57.774933238597" lon="12.235756720261">
        <ele>11.2</ele>
        <time>2016-10-11T06:38:14Z</time>
      </trkpt>
      <trkpt lat="57.774950840587" lon="12.235738112443">
        <ele>11.2</ele>
        <time>2016-10-11T06:38:15Z</time>
      </trkpt>
      <trkpt lat="57.775061984581" lon="12.235616491074">
        <ele>11</ele>
        <time>2016-10-11T06:38:21Z</time>
      </trkpt>
      <trkpt lat="57.775181175199" lon="12.235479279371">
        <ele>11.4</ele>
        <time>2016-10-11T06:38:27Z</time>
      </trkpt>
      <trkpt lat="57.775191233479" lon="12.235459833363">
        <ele>11.6</ele>
        <time>2016-10-11T06:38:28Z</time>
      </trkpt>
      <trkpt lat="57.775216798274" lon="12.235314491217">
        <ele>12</ele>
        <time>2016-10-11T06:38:32Z</time>
      </trkpt>
      <trkpt lat="57.77520539889" lon="12.235072086669">
        <ele>11.8</ele>
        <time>2016-10-11T06:38:38Z</time>
      </trkpt>
      <trkpt lat="57.775224761079" lon="12.234823395696">
        <ele>12</ele>
        <time>2016-10-11T06:38:44Z</time>
      </trkpt>
      <trkpt lat="57.775275471574" lon="12.234575123818">
        <ele>11</ele>
        <time>2016-10-11T06:38:50Z</time>
      </trkpt>
      <trkpt lat="57.775364906447" lon="12.234386866344">
        <ele>10.8</ele>
        <time>2016-10-11T06:38:56Z</time>
      </trkpt>
      <trkpt lat="57.775470099292" lon="12.234219982715">
        <ele>10.8</ele>
        <time>2016-10-11T06:39:02Z</time>
      </trkpt>
      <trkpt lat="57.775589206091" lon="12.234074892026">
        <ele>11.2</ele>
        <time>2016-10-11T06:39:08Z</time>
      </trkpt>
      <trkpt lat="57.775713509668" lon="12.233994174329">
        <ele>11</ele>
        <time>2016-10-11T06:39:14Z</time>
      </trkpt>
      <trkpt lat="57.775791461338" lon="12.233907505483">
        <ele>11.2</ele>
        <time>2016-10-11T06:39:20Z</time>
      </trkpt>
      <trkpt lat="57.775920123503" lon="12.233869535476">
        <ele>11</ele>
        <time>2016-10-11T06:39:25Z</time>
      </trkpt>
      <trkpt lat="57.776106536959" lon="12.233784375372">
        <ele>10.6</ele>
        <time>2016-10-11T06:39:31Z</time>
      </trkpt>
      <trkpt lat="57.776263278489" lon="12.233723606597">
        <ele>11.2</ele>
        <time>2016-10-11T06:39:37Z</time>
      </trkpt>
      <trkpt lat="57.77638137946" lon="12.233752272695">
        <ele>11.8</ele>
        <time>2016-10-11T06:39:43Z</time>
      </trkpt>
      <trkpt lat="57.776440388036" lon="12.233778927137">
        <ele>12.4</ele>
        <time>2016-10-11T06:39:46Z</time>
      </trkpt>
      <trkpt lat="57.776527643615" lon="12.233851346753">
        <ele>13.2</ele>
        <time>2016-10-11T06:39:51Z</time>
      </trkpt>
      <trkpt lat="57.776541557569" lon="12.233938518513">
        <ele>13.2</ele>
        <time>2016-10-11T06:39:53Z</time>
      </trkpt>
      <trkpt lat="57.776537366619" lon="12.233989480465">
        <ele>13.4</ele>
        <time>2016-10-11T06:39:54Z</time>
      </trkpt>
      <trkpt lat="57.776539210637" lon="12.234217551964">
        <ele>14</ele>
        <time>2016-10-11T06:39:59Z</time>
      </trkpt>
      <trkpt lat="57.776534600592" lon="12.234337999867">
        <ele>14.6</ele>
        <time>2016-10-11T06:40:02Z</time>
      </trkpt>
      <trkpt lat="57.776532002203" lon="12.234464818014">
        <ele>15.4</ele>
        <time>2016-10-11T06:40:05Z</time>
      </trkpt>
      <trkpt lat="57.776539210637" lon="12.234530615929">
        <ele>15.8</ele>
        <time>2016-10-11T06:40:07Z</time>
      </trkpt>
      <trkpt lat="57.776543485406" lon="12.234548050281">
        <ele>16</ele>
        <time>2016-10-11T06:40:08Z</time>
      </trkpt>
      <trkpt lat="57.776610372968" lon="12.234495495768">
        <ele>16.2</ele>
        <time>2016-10-11T06:40:13Z</time>
      </trkpt>
      <trkpt lat="57.776643397654" lon="12.234370102544">
        <ele>16</ele>
        <time>2016-10-11T06:40:17Z</time>
      </trkpt>
      <trkpt lat="57.776750602155" lon="12.234262898043">
        <ele>15.8</ele>
        <time>2016-10-11T06:40:23Z</time>
      </trkpt>
      <trkpt lat="57.776772059819" lon="12.234250073736">
        <ele>15.8</ele>
        <time>2016-10-11T06:40:24Z</time>
      </trkpt>
      <trkpt lat="57.776885802202" lon="12.234167344383">
        <ele>16.4</ele>
        <time>2016-10-11T06:40:30Z</time>
      </trkpt>
      <trkpt lat="57.776957467447" lon="12.234104144857">
        <ele>16.8</ele>
        <time>2016-10-11T06:40:34Z</time>
      </trkpt>
      <trkpt lat="57.777073389124" lon="12.23403264725">
        <ele>17.8</ele>
        <time>2016-10-11T06:40:40Z</time>
      </trkpt>
      <trkpt lat="57.777105240344" lon="12.234033066345">
        <ele>18</ele>
        <time>2016-10-11T06:40:42Z</time>
      </trkpt>
      <trkpt lat="57.777141953066" lon="12.234059217873">
        <ele>19</ele>
        <time>2016-10-11T06:40:46Z</time>
      </trkpt>
      <trkpt lat="57.777155950839" lon="12.234090063265">
        <ele>19.8</ele>
        <time>2016-10-11T06:40:48Z</time>
      </trkpt>
      <trkpt lat="57.777167936956" lon="12.234110431282">
        <ele>20.4</ele>
        <time>2016-10-11T06:40:50Z</time>
      </trkpt>
      <trkpt lat="57.777176486494" lon="12.234124931969">
        <ele>20.6</ele>
        <time>2016-10-11T06:40:51Z</time>
      </trkpt>
      <trkpt lat="57.777247565006" lon="12.234244038768">
        <ele>21.4</ele>
        <time>2016-10-11T06:40:57Z</time>
      </trkpt>
      <trkpt lat="57.777330713454" lon="12.234293491978">
        <ele>22.4</ele>
        <time>2016-10-11T06:41:02Z</time>
      </trkpt>
      <trkpt lat="57.777419393956" lon="12.23431595547">
        <ele>23.6</ele>
        <time>2016-10-11T06:41:07Z</time>
      </trkpt>
      <trkpt lat="57.777525844086" lon="12.234315871651">
        <ele>24.8</ele>
        <time>2016-10-11T06:41:13Z</time>
      </trkpt>
      <trkpt lat="57.777603879575" lon="12.234311345425">
        <ele>26</ele>
        <time>2016-10-11T06:41:17Z</time>
      </trkpt>
      <trkpt lat="57.777727847876" lon="12.234275554712">
        <ele>26.4</ele>
        <time>2016-10-11T06:41:23Z</time>
      </trkpt>
      <trkpt lat="57.777802698243" lon="12.234270274115">
        <ele>27.2</ele>
        <time>2016-10-11T06:41:26Z</time>
      </trkpt>
      <trkpt lat="57.777964636551" lon="12.234276057626">
        <ele>27.8</ele>
        <time>2016-10-11T06:41:32Z</time>
      </trkpt>
      <trkpt lat="57.778109978697" lon="12.234315871651">
        <ele>28.2</ele>
        <time>2016-10-11T06:41:38Z</time>
      </trkpt>
      <trkpt lat="57.778131101085" lon="12.234316542203">
        <ele>28.4</ele>
        <time>2016-10-11T06:41:39Z</time>
      </trkpt>
      <trkpt lat="57.778267893693" lon="12.234330875252">
        <ele>29</ele>
        <time>2016-10-11T06:41:45Z</time>
      </trkpt>
      <trkpt lat="57.778399908618" lon="12.234325343198">
        <ele>29.4</ele>
        <time>2016-10-11T06:41:51Z</time>
      </trkpt>
      <trkpt lat="57.778510549698" lon="12.234318637678">
        <ele>29.6</ele>
        <time>2016-10-11T06:41:57Z</time>
      </trkpt>
      <trkpt lat="57.778597470001" lon="12.234307238294">
        <ele>30.2</ele>
        <time>2016-10-11T06:42:03Z</time>
      </trkpt>
      <trkpt lat="57.77863443418" lon="12.234286702639">
        <ele>30.6</ele>
        <time>2016-10-11T06:42:05Z</time>
      </trkpt>
      <trkpt lat="57.778742057776" lon="12.234214869756">
        <ele>31.6</ele>
        <time>2016-10-11T06:42:11Z</time>
      </trkpt>
      <trkpt lat="57.778786481846" lon="12.234187880038">
        <ele>32</ele>
        <time>2016-10-11T06:42:14Z</time>
      </trkpt>
      <trkpt lat="57.778888070474" lon="12.234251666297">
        <ele>32.4</ele>
        <time>2016-10-11T06:42:20Z</time>
      </trkpt>
      <trkpt lat="57.779018744295" lon="12.234408659284">
        <ele>32</ele>
        <time>2016-10-11T06:42:26Z</time>
      </trkpt>
      <trkpt lat="57.779127792814" lon="12.234599598966">
        <ele>31.8</ele>
        <time>2016-10-11T06:42:32Z</time>
      </trkpt>
      <trkpt lat="57.779277493548" lon="12.234722142344">
        <ele>31.8</ele>
        <time>2016-10-11T06:42:38Z</time>
      </trkpt>
      <trkpt lat="57.779412106862" lon="12.234898329882">
        <ele>32</ele>
        <time>2016-10-11T06:42:44Z</time>
      </trkpt>
      <trkpt lat="57.779519479001" lon="12.235056328697">
        <ele>32.2</ele>
        <time>2016-10-11T06:42:50Z</time>
      </trkpt>
      <trkpt lat="57.779684267155" lon="12.235201670843">
        <ele>32.4</ele>
        <time>2016-10-11T06:42:56Z</time>
      </trkpt>
      <trkpt lat="57.779798093357" lon="12.235200497377">
        <ele>32.8</ele>
        <time>2016-10-11T06:43:01Z</time>
      </trkpt>
      <trkpt lat="57.779817623184" lon="12.235171579822">
        <ele>33</ele>
        <time>2016-10-11T06:43:03Z</time>
      </trkpt>
      <trkpt lat="57.779807229628" lon="12.235161102447">
        <ele>33.2</ele>
        <time>2016-10-11T06:43:04Z</time>
      </trkpt>
      <trkpt lat="57.779864813281" lon="12.235129921779">
        <ele>33.8</ele>
        <time>2016-10-11T06:43:07Z</time>
      </trkpt>
      <trkpt lat="57.779931700843" lon="12.235081139121">
        <ele>35</ele>
        <time>2016-10-11T06:43:11Z</time>
      </trkpt>
      <trkpt lat="57.780052567841" lon="12.23502254964">
        <ele>36</ele>
        <time>2016-10-11T06:43:16Z</time>
      </trkpt>
      <trkpt lat="57.780178883074" lon="12.234936802803">
        <ele>36.8</ele>
        <time>2016-10-11T06:43:22Z</time>
      </trkpt>
      <trkpt lat="57.780294553294" lon="12.234821803135">
        <ele>36.4</ele>
        <time>2016-10-11T06:43:28Z</time>
      </trkpt>
      <trkpt lat="57.780411983713" lon="12.234706971105">
        <ele>36</ele>
        <time>2016-10-11T06:43:34Z</time>
      </trkpt>
      <trkpt lat="57.780515583997" lon="12.234592641989">
        <ele>36.2</ele>
        <time>2016-10-11T06:43:40Z</time>
      </trkpt>
      <trkpt lat="57.780627566181" lon="12.234482252366">
        <ele>36</ele>
        <time>2016-10-11T06:43:46Z</time>
      </trkpt>
      <trkpt lat="57.780741895297" lon="12.234329450329">
        <ele>36</ele>
        <time>2016-10-11T06:43:52Z</time>
      </trkpt>
      <trkpt lat="57.780869300177" lon="12.234191148979">
        <ele>35.8</ele>
        <time>2016-10-11T06:43:58Z</time>
      </trkpt>
      <trkpt lat="57.781007433889" lon="12.234133397688">
        <ele>35.8</ele>
        <time>2016-10-11T06:44:03Z</time>
      </trkpt>
      <trkpt lat="57.781163169591" lon="12.234065671936">
        <ele>36.2</ele>
        <time>2016-10-11T06:44:09Z</time>
      </trkpt>
      <trkpt lat="57.781229051325" lon="12.234066677764">
        <ele>36.4</ele>
        <time>2016-10-11T06:44:12Z</time>
      </trkpt>
      <trkpt lat="57.78139124109" lon="12.234026947558">
        <ele>36.6</ele>
        <time>2016-10-11T06:44:18Z</time>
      </trkpt>
      <trkpt lat="57.781571116664" lon="12.23385495097">
        <ele>36.4</ele>
        <time>2016-10-11T06:44:24Z</time>
      </trkpt>
      <trkpt lat="57.781699778829" lon="12.233698041802">
        <ele>36</ele>
        <time>2016-10-11T06:44:30Z</time>
      </trkpt>
      <trkpt lat="57.781824082406" lon="12.233559656633">
        <ele>35.4</ele>
        <time>2016-10-11T06:44:36Z</time>
      </trkpt>
      <trkpt lat="57.781865740449" lon="12.233520764617">
        <ele>35</ele>
        <time>2016-10-11T06:44:38Z</time>
      </trkpt>
      <trkpt lat="57.78197210676" lon="12.233491595605">
        <ele>34.8</ele>
        <time>2016-10-11T06:44:44Z</time>
      </trkpt>
      <trkpt lat="57.782045951299" lon="12.233347929839">
        <ele>35.4</ele>
        <time>2016-10-11T06:44:50Z</time>
      </trkpt>
      <trkpt lat="57.782057937416" lon="12.233328902926">
        <ele>35.4</ele>
        <time>2016-10-11T06:44:51Z</time>
      </trkpt>
      <trkpt lat="57.782120717847" lon="12.233236199112">
        <ele>36</ele>
        <time>2016-10-11T06:44:56Z</time>
      </trkpt>
      <trkpt lat="57.782194813843" lon="12.233125558032">
        <ele>37.2</ele>
        <time>2016-10-11T06:45:01Z</time>
      </trkpt>
      <trkpt lat="57.782301096335" lon="12.232949035218">
        <ele>37.4</ele>
        <time>2016-10-11T06:45:07Z</time>
      </trkpt>
      <trkpt lat="57.782395811805" lon="12.232838310319">
        <ele>36.6</ele>
        <time>2016-10-11T06:45:13Z</time>
      </trkpt>
      <trkpt lat="57.782506788161" lon="12.232720293167">
        <ele>36</ele>
        <time>2016-10-11T06:45:19Z</time>
      </trkpt>
      <trkpt lat="57.782610891359" lon="12.23259850416">
        <ele>34.8</ele>
        <time>2016-10-11T06:45:24Z</time>
      </trkpt>
      <trkpt lat="57.782669397021" lon="12.232371606127">
        <ele>34.6</ele>
        <time>2016-10-11T06:45:30Z</time>
      </trkpt>
      <trkpt lat="57.78270552301" lon="12.232108833562">
        <ele>34.8</ele>
        <time>2016-10-11T06:45:36Z</time>
      </trkpt>
      <trkpt lat="57.782749863261" lon="12.231846731549">
        <ele>35.2</ele>
        <time>2016-10-11T06:45:42Z</time>
      </trkpt>
      <trkpt lat="57.782809961484" lon="12.231596280377">
        <ele>35.4</ele>
        <time>2016-10-11T06:45:48Z</time>
      </trkpt>
      <trkpt lat="57.78286645549" lon="12.231307021008">
        <ele>35.4</ele>
        <time>2016-10-11T06:45:54Z</time>
      </trkpt>
      <trkpt lat="57.782927140446" lon="12.231043577891">
        <ele>34.8</ele>
        <time>2016-10-11T06:46:00Z</time>
      </trkpt>
      <trkpt lat="57.782978102398" lon="12.230811231623">
        <ele>35</ele>
        <time>2016-10-11T06:46:06Z</time>
      </trkpt>
      <trkpt lat="57.783001068804" lon="12.230584417409">
        <ele>36</ele>
        <time>2016-10-11T06:46:11Z</time>
      </trkpt>
      <trkpt lat="57.783049432367" lon="12.230407307862">
        <ele>36.6</ele>
        <time>2016-10-11T06:46:16Z</time>
      </trkpt>
      <trkpt lat="57.783075583895" lon="12.230349556571">
        <ele>37</ele>
        <time>2016-10-11T06:46:18Z</time>
      </trkpt>
      <trkpt lat="57.783153451746" lon="12.230255930748">
        <ele>38.2</ele>
        <time>2016-10-11T06:46:24Z</time>
      </trkpt>
      <trkpt lat="57.783166862786" lon="12.230250985427">
        <ele>38.4</ele>
        <time>2016-10-11T06:46:25Z</time>
      </trkpt>
      <trkpt lat="57.78320256968" lon="12.230246375382">
        <ele>38.8</ele>
        <time>2016-10-11T06:46:27Z</time>
      </trkpt>
      <trkpt lat="57.783302398109" lon="12.230167082608">
        <ele>39.2</ele>
        <time>2016-10-11T06:46:32Z</time>
      </trkpt>
      <trkpt lat="57.783398370864" lon="12.230036408787">
        <ele>40</ele>
        <time>2016-10-11T06:46:38Z</time>
      </trkpt>
      <trkpt lat="57.783408848239" lon="12.230016627503">
        <ele>40.2</ele>
        <time>2016-10-11T06:46:39Z</time>
      </trkpt>
      <trkpt lat="57.78346576134" lon="12.229955774909">
        <ele>41.2</ele>
        <time>2016-10-11T06:46:44Z</time>
      </trkpt>
      <trkpt lat="57.783474729973" lon="12.229944040249">
        <ele>41.4</ele>
        <time>2016-10-11T06:46:45Z</time>
      </trkpt>
      <trkpt lat="57.783475484344" lon="12.229911853753">
        <ele>41.4</ele>
        <time>2016-10-11T06:46:47Z</time>
      </trkpt>
      <trkpt lat="57.783445812418" lon="12.2299045615">
        <ele>41.4</ele>
        <time>2016-10-11T06:46:50Z</time>
      </trkpt>
      <trkpt lat="57.783325113058" lon="12.229989889242">
        <ele>40.4</ele>
        <time>2016-10-11T06:46:58Z</time>
      </trkpt>
      <trkpt lat="57.783226039" lon="12.230074965527">
        <ele>39.6</ele>
        <time>2016-10-11T06:47:04Z</time>
      </trkpt>
      <trkpt lat="57.783194690694" lon="12.230110672421">
        <ele>39.2</ele>
        <time>2016-10-11T06:47:06Z</time>
      </trkpt>
      <trkpt lat="57.783116152291" lon="12.230261295164">
        <ele>38.2</ele>
        <time>2016-10-11T06:47:12Z</time>
      </trkpt>
      <trkpt lat="57.783061921398" lon="12.230508728852">
        <ele>37.2</ele>
        <time>2016-10-11T06:47:18Z</time>
      </trkpt>
      <trkpt lat="57.783027723246" lon="12.230822044274">
        <ele>36.2</ele>
        <time>2016-10-11T06:47:24Z</time>
      </trkpt>
      <trkpt lat="57.78296117096" lon="12.231092528187">
        <ele>35</ele>
        <time>2016-10-11T06:47:30Z</time>
      </trkpt>
      <trkpt lat="57.782878357788" lon="12.231358402055">
        <ele>34.4</ele>
        <time>2016-10-11T06:47:36Z</time>
      </trkpt>
      <trkpt lat="57.782816247909" lon="12.231674567323">
        <ele>34.2</ele>
        <time>2016-10-11T06:47:42Z</time>
      </trkpt>
      <trkpt lat="57.782766124147" lon="12.231948823091">
        <ele>34.8</ele>
        <time>2016-10-11T06:47:48Z</time>
      </trkpt>
      <trkpt lat="57.782755060039" lon="12.232214780778">
        <ele>35</ele>
        <time>2016-10-11T06:47:54Z</time>
      </trkpt>
      <trkpt lat="57.782708959589" lon="12.232473446212">
        <ele>34.8</ele>
        <time>2016-10-11T06:48:00Z</time>
      </trkpt>
      <trkpt lat="57.782616758689" lon="12.232617531073">
        <ele>34.4</ele>
        <time>2016-10-11T06:48:06Z</time>
      </trkpt>
      <trkpt lat="57.782506201428" lon="12.232730770542">
        <ele>35.2</ele>
        <time>2016-10-11T06:48:12Z</time>
      </trkpt>
      <trkpt lat="57.782427411568" lon="12.232854571205">
        <ele>36</ele>
        <time>2016-10-11T06:48:18Z</time>
      </trkpt>
      <trkpt lat="57.782418526754" lon="12.232867227874">
        <ele>36.2</ele>
        <time>2016-10-11T06:48:19Z</time>
      </trkpt>
      <trkpt lat="57.782316099936" lon="12.232966972484">
        <ele>37</ele>
        <time>2016-10-11T06:48:25Z</time>
      </trkpt>
      <trkpt lat="57.782300425783" lon="12.2329807188">
        <ele>37.4</ele>
        <time>2016-10-11T06:48:26Z</time>
      </trkpt>
      <trkpt lat="57.78219590349" lon="12.233080798686">
        <ele>36.8</ele>
        <time>2016-10-11T06:48:32Z</time>
      </trkpt>
      <trkpt lat="57.782114850517" lon="12.233127737326">
        <ele>36.2</ele>
        <time>2016-10-11T06:48:36Z</time>
      </trkpt>
      <trkpt lat="57.781990044026" lon="12.233216753104">
        <ele>35.2</ele>
        <time>2016-10-11T06:48:41Z</time>
      </trkpt>
      <trkpt lat="57.781842941681" lon="12.23336544801">
        <ele>34.8</ele>
        <time>2016-10-11T06:48:47Z</time>
      </trkpt>
      <trkpt lat="57.781718721923" lon="12.233531325811">
        <ele>35</ele>
        <time>2016-10-11T06:48:53Z</time>
      </trkpt>
      <trkpt lat="57.781639680606" lon="12.233632076249">
        <ele>35.4</ele>
        <time>2016-10-11T06:48:57Z</time>
      </trkpt>
      <trkpt lat="57.781559884918" lon="12.233748417021">
        <ele>36.2</ele>
        <time>2016-10-11T06:49:01Z</time>
      </trkpt>
      <trkpt lat="57.781462738697" lon="12.233806419769">
        <ele>36.6</ele>
        <time>2016-10-11T06:49:07Z</time>
      </trkpt>
      <trkpt lat="57.781419655731" lon="12.233830894917">
        <ele>36.8</ele>
        <time>2016-10-11T06:49:10Z</time>
      </trkpt>
      <trkpt lat="57.78129065829" lon="12.23384489269">
        <ele>36.6</ele>
        <time>2016-10-11T06:49:16Z</time>
      </trkpt>
      <trkpt lat="57.781109190155" lon="12.233881186317">
        <ele>36.2</ele>
        <time>2016-10-11T06:49:22Z</time>
      </trkpt>
      <trkpt lat="57.781003745853" lon="12.233985457153">
        <ele>35.8</ele>
        <time>2016-10-11T06:49:28Z</time>
      </trkpt>
      <trkpt lat="57.780873323489" lon="12.234062738271">
        <ele>36</ele>
        <time>2016-10-11T06:49:34Z</time>
      </trkpt>
      <trkpt lat="57.780738793994" lon="12.234201877811">
        <ele>36.2</ele>
        <time>2016-10-11T06:49:40Z</time>
      </trkpt>
      <trkpt lat="57.780585489043" lon="12.234363229386">
        <ele>36.4</ele>
        <time>2016-10-11T06:49:46Z</time>
      </trkpt>
      <trkpt lat="57.780455737231" lon="12.234517707803">
        <ele>35.8</ele>
        <time>2016-10-11T06:49:52Z</time>
      </trkpt>
      <trkpt lat="57.7803342835" lon="12.234779809816">
        <ele>36.2</ele>
        <time>2016-10-11T06:49:58Z</time>
      </trkpt>
      <trkpt lat="57.780199754005" lon="12.234946861083">
        <ele>36.4</ele>
        <time>2016-10-11T06:50:04Z</time>
      </trkpt>
      <trkpt lat="57.780081820672" lon="12.235024728934">
        <ele>36.2</ele>
        <time>2016-10-11T06:50:10Z</time>
      </trkpt>
      <trkpt lat="57.77994284877" lon="12.235042498562">
        <ele>35.6</ele>
        <time>2016-10-11T06:50:16Z</time>
      </trkpt>
      <trkpt lat="57.779888617877" lon="12.235049790815">
        <ele>35.2</ele>
        <time>2016-10-11T06:50:19Z</time>
      </trkpt>
      <trkpt lat="57.779782586842" lon="12.235114918178">
        <ele>34</ele>
        <time>2016-10-11T06:50:25Z</time>
      </trkpt>
      <trkpt lat="57.779608997693" lon="12.235206867621">
        <ele>32.8</ele>
        <time>2016-10-11T06:50:31Z</time>
      </trkpt>
      <trkpt lat="57.779481676632" lon="12.235394789819">
        <ele>32.2</ele>
        <time>2016-10-11T06:50:37Z</time>
      </trkpt>
      <trkpt lat="57.77941143631" lon="12.235627136087">
        <ele>31.6</ele>
        <time>2016-10-11T06:50:42Z</time>
      </trkpt>
      <trkpt lat="57.779305572913" lon="12.235864260038">
        <ele>30.8</ele>
        <time>2016-10-11T06:50:48Z</time>
      </trkpt>
      <trkpt lat="57.779218484972" lon="12.236077495574">
        <ele>30.6</ele>
        <time>2016-10-11T06:50:54Z</time>
      </trkpt>
      <trkpt lat="57.779114381774" lon="12.23626139446">
        <ele>30.2</ele>
        <time>2016-10-11T06:51:00Z</time>
      </trkpt>
      <trkpt lat="57.779017822286" lon="12.236255694768">
        <ele>29.6</ele>
        <time>2016-10-11T06:51:05Z</time>
      </trkpt>
      <trkpt lat="57.778896703831" lon="12.236097863591">
        <ele>28.8</ele>
        <time>2016-10-11T06:51:11Z</time>
      </trkpt>
      <trkpt lat="57.778752367513" lon="12.235976912774">
        <ele>28.8</ele>
        <time>2016-10-11T06:51:17Z</time>
      </trkpt>
      <trkpt lat="57.778596464173" lon="12.235878425449">
        <ele>28.4</ele>
        <time>2016-10-11T06:51:23Z</time>
      </trkpt>
      <trkpt lat="57.778456486443" lon="12.235803826539">
        <ele>28.4</ele>
        <time>2016-10-11T06:51:29Z</time>
      </trkpt>
      <trkpt lat="57.778318520369" lon="12.235766527084">
        <ele>28.2</ele>
        <time>2016-10-11T06:51:35Z</time>
      </trkpt>
      <trkpt lat="57.778170747472" lon="12.23580625729">
        <ele>28.2</ele>
        <time>2016-10-11T06:51:41Z</time>
      </trkpt>
      <trkpt lat="57.778023142213" lon="12.235832911732">
        <ele>27.8</ele>
        <time>2016-10-11T06:51:47Z</time>
      </trkpt>
      <trkpt lat="57.777880230818" lon="12.235835091026">
        <ele>28</ele>
        <time>2016-10-11T06:51:53Z</time>
      </trkpt>
      <trkpt lat="57.777735810681" lon="12.23584649041">
        <ele>27.6</ele>
        <time>2016-10-11T06:51:59Z</time>
      </trkpt>
      <trkpt lat="57.777710581162" lon="12.235869205359">
        <ele>27.4</ele>
        <time>2016-10-11T06:52:00Z</time>
      </trkpt>
      <trkpt lat="57.777574459106" lon="12.235878006354">
        <ele>27.6</ele>
        <time>2016-10-11T06:52:06Z</time>
      </trkpt>
      <trkpt lat="57.777440767801" lon="12.235868450988">
        <ele>28</ele>
        <time>2016-10-11T06:52:12Z</time>
      </trkpt>
      <trkpt lat="57.777325097581" lon="12.23585403412">
        <ele>26.4</ele>
        <time>2016-10-11T06:52:18Z</time>
      </trkpt>
      <trkpt lat="57.777275225276" lon="12.235812040801">
        <ele>25.4</ele>
        <time>2016-10-11T06:52:21Z</time>
      </trkpt>
      <trkpt lat="57.777235578889" lon="12.23577356788">
        <ele>24.2</ele>
        <time>2016-10-11T06:52:24Z</time>
      </trkpt>
      <trkpt lat="57.777194172303" lon="12.235742973945">
        <ele>23</ele>
        <time>2016-10-11T06:52:27Z</time>
      </trkpt>
      <trkpt lat="57.777143629446" lon="12.235711458001">
        <ele>21.8</ele>
        <time>2016-10-11T06:52:30Z</time>
      </trkpt>
      <trkpt lat="57.777098283367" lon="12.235680193514">
        <ele>20.6</ele>
        <time>2016-10-11T06:52:33Z</time>
      </trkpt>
      <trkpt lat="57.777043046646" lon="12.235666028103">
        <ele>19.4</ele>
        <time>2016-10-11T06:52:36Z</time>
      </trkpt>
      <trkpt lat="57.777003903173" lon="12.235653874348">
        <ele>18.2</ele>
        <time>2016-10-11T06:52:38Z</time>
      </trkpt>
      <trkpt lat="57.776926705874" lon="12.235673152718">
        <ele>17.2</ele>
        <time>2016-10-11T06:52:41Z</time>
      </trkpt>
      <trkpt lat="57.776766611584" lon="12.235799635589">
        <ele>16.2</ele>
        <time>2016-10-11T06:52:47Z</time>
      </trkpt>
      <trkpt lat="57.776739957142" lon="12.235827547316">
        <ele>16</ele>
        <time>2016-10-11T06:52:48Z</time>
      </trkpt>
      <trkpt lat="57.776596039919" lon="12.236009266908">
        <ele>15</ele>
        <time>2016-10-11T06:52:54Z</time>
      </trkpt>
      <trkpt lat="57.776466371926" lon="12.236166427533">
        <ele>13.8</ele>
        <time>2016-10-11T06:53:00Z</time>
      </trkpt>
      <trkpt lat="57.776373751931" lon="12.236316128267">
        <ele>12.8</ele>
        <time>2016-10-11T06:53:05Z</time>
      </trkpt>
      <trkpt lat="57.776295213528" lon="12.236449065201">
        <ele>11.8</ele>
        <time>2016-10-11T06:53:09Z</time>
      </trkpt>
      <trkpt lat="57.776203850818" lon="12.236617289934">
        <ele>10.6</ele>
        <time>2016-10-11T06:53:14Z</time>
      </trkpt>
      <trkpt lat="57.77613662798" lon="12.236749807773">
        <ele>9.8</ele>
        <time>2016-10-11T06:53:18Z</time>
      </trkpt>
      <trkpt lat="57.776016263896" lon="12.236904202371">
        <ele>9.6</ele>
        <time>2016-10-11T06:53:24Z</time>
      </trkpt>
      <trkpt lat="57.775981311373" lon="12.236940747455">
        <ele>9.4</ele>
        <time>2016-10-11T06:53:26Z</time>
      </trkpt>
      <trkpt lat="57.775929259774" lon="12.236995481262">
        <ele>9.2</ele>
        <time>2016-10-11T06:53:29Z</time>
      </trkpt>
      <trkpt lat="57.775815433572" lon="12.236890372236">
        <ele>9.2</ele>
        <time>2016-10-11T06:53:35Z</time>
      </trkpt>
      <trkpt lat="57.775716946247" lon="12.236737989294">
        <ele>9</ele>
        <time>2016-10-11T06:53:41Z</time>
      </trkpt>
      <trkpt lat="57.775617872189" lon="12.236603711256">
        <ele>9</ele>
        <time>2016-10-11T06:53:47Z</time>
      </trkpt>
      <trkpt lat="57.775504800358" lon="12.236457111825">
        <ele>9.2</ele>
        <time>2016-10-11T06:53:53Z</time>
      </trkpt>
      <trkpt lat="57.775394578373" lon="12.236285534332">
        <ele>9.6</ele>
        <time>2016-10-11T06:53:59Z</time>
      </trkpt>
      <trkpt lat="57.775319895644" lon="12.236093924098">
        <ele>10.4</ele>
        <time>2016-10-11T06:54:04Z</time>
      </trkpt>
      <trkpt lat="57.775256109385" lon="12.235865684961">
        <ele>11.4</ele>
        <time>2016-10-11T06:54:10Z</time>
      </trkpt>
      <trkpt lat="57.775227946201" lon="12.23583727032">
        <ele>11.4</ele>
        <time>2016-10-11T06:54:11Z</time>
      </trkpt>
      <trkpt lat="57.775150413626" lon="12.235673571813">
        <ele>11.8</ele>
        <time>2016-10-11T06:54:17Z</time>
      </trkpt>
      <trkpt lat="57.775028037886" lon="12.235733837674">
        <ele>11.2</ele>
        <time>2016-10-11T06:54:23Z</time>
      </trkpt>
      <trkpt lat="57.774901303558" lon="12.235796282829">
        <ele>10.8</ele>
        <time>2016-10-11T06:54:29Z</time>
      </trkpt>
      <trkpt lat="57.774805163165" lon="12.235877168164">
        <ele>10.6</ele>
        <time>2016-10-11T06:54:35Z</time>
      </trkpt>
      <trkpt lat="57.774678093561" lon="12.235941960251">
        <ele>10.6</ele>
        <time>2016-10-11T06:54:41Z</time>
      </trkpt>
      <trkpt lat="57.774656468259" lon="12.235958388775">
        <ele>10.4</ele>
        <time>2016-10-11T06:54:42Z</time>
      </trkpt>
      <trkpt lat="57.774526129714" lon="12.235947659943">
        <ele>8</ele>
        <time>2016-10-11T06:54:48Z</time>
      </trkpt>
      <trkpt lat="57.774471395907" lon="12.2359143838">
        <ele>6.4</ele>
        <time>2016-10-11T06:54:51Z</time>
      </trkpt>
      <trkpt lat="57.774360168094" lon="12.235784967264">
        <ele>5.4</ele>
        <time>2016-10-11T06:54:57Z</time>
      </trkpt>
      <trkpt lat="57.774337788421" lon="12.235744650325">
        <ele>5.2</ele>
        <time>2016-10-11T06:54:58Z</time>
      </trkpt>
      <trkpt lat="57.774265452624" lon="12.23560928264">
        <ele>4.8</ele>
        <time>2016-10-11T06:55:02Z</time>
      </trkpt>
      <trkpt lat="57.774221028554" lon="12.235421611899">
        <ele>4.2</ele>
        <time>2016-10-11T06:55:06Z</time>
      </trkpt>
      <trkpt lat="57.774210215903" lon="12.235137465489">
        <ele>3.6</ele>
        <time>2016-10-11T06:55:12Z</time>
      </trkpt>
      <trkpt lat="57.774188758239" lon="12.234858348219">
        <ele>3.4</ele>
        <time>2016-10-11T06:55:18Z</time>
      </trkpt>
      <trkpt lat="57.774164115453" lon="12.234566825737">
        <ele>3.4</ele>
        <time>2016-10-11T06:55:24Z</time>
      </trkpt>
      <trkpt lat="57.774142909246" lon="12.234285948268">
        <ele>3.4</ele>
        <time>2016-10-11T06:55:30Z</time>
      </trkpt>
      <trkpt lat="57.774118182641" lon="12.233998113822">
        <ele>3.8</ele>
        <time>2016-10-11T06:55:36Z</time>
      </trkpt>
      <trkpt lat="57.774112147673" lon="12.233693767033">
        <ele>3.6</ele>
        <time>2016-10-11T06:55:42Z</time>
      </trkpt>
      <trkpt lat="57.774131258405" lon="12.233410542632">
        <ele>3.4</ele>
        <time>2016-10-11T06:55:48Z</time>
      </trkpt>
      <trkpt lat="57.774186243669" lon="12.233181632943">
        <ele>3.6</ele>
        <time>2016-10-11T06:55:54Z</time>
      </trkpt>
      <trkpt lat="57.774250951937" lon="12.232948699942">
        <ele>3.2</ele>
        <time>2016-10-11T06:56:00Z</time>
      </trkpt>
      <trkpt lat="57.774298393491" lon="12.232695063648">
        <ele>3.6</ele>
        <time>2016-10-11T06:56:06Z</time>
      </trkpt>
      <trkpt lat="57.774374501143" lon="12.232456682412">
        <ele>3.6</ele>
        <time>2016-10-11T06:56:12Z</time>
      </trkpt>
      <trkpt lat="57.774488159707" lon="12.232306059669">
        <ele>4</ele>
        <time>2016-10-11T06:56:18Z</time>
      </trkpt>
      <trkpt lat="57.774607098868" lon="12.232158622048">
        <ele>4</ele>
        <time>2016-10-11T06:56:24Z</time>
      </trkpt>
      <trkpt lat="57.774740622535" lon="12.231985200537">
        <ele>4.2</ele>
        <time>2016-10-11T06:56:30Z</time>
      </trkpt>
      <trkpt lat="57.774871547813" lon="12.231891155619">
        <ele>4.2</ele>
        <time>2016-10-11T06:56:36Z</time>
      </trkpt>
      <trkpt lat="57.77498830768" lon="12.231955193335">
        <ele>4.4</ele>
        <time>2016-10-11T06:56:42Z</time>
      </trkpt>
      <trkpt lat="57.775120909338" lon="12.232084526052">
        <ele>4.8</ele>
        <time>2016-10-11T06:56:48Z</time>
      </trkpt>
      <trkpt lat="57.77515929844" lon="12.232143199352">
        <ele>5.2</ele>
        <time>2016-10-11T06:56:50Z</time>
      </trkpt>
      <trkpt lat="57.775273208461" lon="12.232272867345">
        <ele>6.2</ele>
        <time>2016-10-11T06:56:55Z</time>
      </trkpt>
      <trkpt lat="57.77536633137" lon="12.232430195608">
        <ele>7</ele>
        <time>2016-10-11T06:57:01Z</time>
      </trkpt>
      <trkpt lat="57.775400026608" lon="12.232495825885">
        <ele>7.2</ele>
        <time>2016-10-11T06:57:03Z</time>
      </trkpt>
      <trkpt lat="57.775502872521" lon="12.232637563814">
        <ele>7.8</ele>
        <time>2016-10-11T06:57:09Z</time>
      </trkpt>
      <trkpt lat="57.775613429782" lon="12.232666565188">
        <ele>8</ele>
        <time>2016-10-11T06:57:15Z</time>
      </trkpt>
      <trkpt lat="57.775752820779" lon="12.232580483075">
        <ele>8.2</ele>
        <time>2016-10-11T06:57:21Z</time>
      </trkpt>
      <trkpt lat="57.775775787185" lon="12.232567407311">
        <ele>8.4</ele>
        <time>2016-10-11T06:57:22Z</time>
      </trkpt>
      <trkpt lat="57.775888942835" lon="12.232448551969">
        <ele>8.8</ele>
        <time>2016-10-11T06:57:28Z</time>
      </trkpt>
      <trkpt lat="57.775916770743" lon="12.232411671609">
        <ele>9.2</ele>
        <time>2016-10-11T06:57:30Z</time>
      </trkpt>
      <trkpt lat="57.775929092136" lon="12.232412342161">
        <ele>9.4</ele>
        <time>2016-10-11T06:57:31Z</time>
      </trkpt>
      <trkpt lat="57.776041325777" lon="12.232489707098">
        <ele>10.2</ele>
        <time>2016-10-11T06:57:37Z</time>
      </trkpt>
      <trkpt lat="57.776091449539" lon="12.232512505866">
        <ele>10.4</ele>
        <time>2016-10-11T06:57:39Z</time>
      </trkpt>
      <trkpt lat="57.776250118906" lon="12.232643347325">
        <ele>11.2</ele>
        <time>2016-10-11T06:57:45Z</time>
      </trkpt>
      <trkpt lat="57.776304098342" lon="12.232717610959">
        <ele>11.6</ele>
        <time>2016-10-11T06:57:47Z</time>
      </trkpt>
      <trkpt lat="57.776394622862" lon="12.233015503685">
        <ele>11.8</ele>
        <time>2016-10-11T06:57:53Z</time>
      </trkpt>
      <trkpt lat="57.776434855982" lon="12.23331934756">
        <ele>12</ele>
        <time>2016-10-11T06:57:59Z</time>
      </trkpt>
      <trkpt lat="57.77645514018" lon="12.233634423181">
        <ele>12.2</ele>
        <time>2016-10-11T06:58:05Z</time>
      </trkpt>
      <trkpt lat="57.776458409121" lon="12.233873977883">
        <ele>12.4</ele>
        <time>2016-10-11T06:58:10Z</time>
      </trkpt>
      <trkpt lat="57.776320107771" lon="12.233910522967">
        <ele>12.2</ele>
        <time>2016-10-11T06:58:16Z</time>
      </trkpt>
      <trkpt lat="57.776170826132" lon="12.233912534623">
        <ele>11.4</ele>
        <time>2016-10-11T06:58:22Z</time>
      </trkpt>
      <trkpt lat="57.776028669108" lon="12.233931812993">
        <ele>10.4</ele>
        <time>2016-10-11T06:58:28Z</time>
      </trkpt>
      <trkpt lat="57.775862875126" lon="12.233955617589">
        <ele>9.8</ele>
        <time>2016-10-11T06:58:34Z</time>
      </trkpt>
      <trkpt lat="57.775772266787" lon="12.233961736376">
        <ele>10</ele>
        <time>2016-10-11T06:58:39Z</time>
      </trkpt>
      <trkpt lat="57.775702780836" lon="12.233794014557">
        <ele>9.6</ele>
        <time>2016-10-11T06:58:45Z</time>
      </trkpt>
      <trkpt lat="57.77569154909" lon="12.233745650994">
        <ele>9.4</ele>
        <time>2016-10-11T06:58:46Z</time>
      </trkpt>
      <trkpt lat="57.77564377226" lon="12.233448764096">
        <ele>9.2</ele>
        <time>2016-10-11T06:58:52Z</time>
      </trkpt>
      <trkpt lat="57.775633043428" lon="12.233385480751">
        <ele>8.8</ele>
        <time>2016-10-11T06:58:55Z</time>
      </trkpt>
    </trkseg>
  </trk>
</gpx>